sensor_id;sensor_type;location;lat;lon;timestamp;P1;durP1;ratioP1;P2;durP2;ratioP2
72479;SDS011;60503;43.540;-5.510;2022-09-02T00:00:23;1.38;;;0.75;;
72479;SDS011;60503;43.540;-5.510;2022-09-02T00:02:49;1.65;;;0.90;;
72479;SDS011;60503;43.540;-5.510;2022-09-02T00:05:15;2.70;;;1.13;;
72479;SDS011;60503;43.540;-5.510;2022-09-02T00:07:41;2.25;;;1.05;;
72479;SDS011;60503;43.540;-5.510;2022-09-02T00:10:07;2.35;;;0.70;;
72479;SDS011;60503;43.540;-5.510;2022-09-02T00:12:33;1.65;;;0.85;;
72479;SDS011;60503;43.540;-5.510;2022-09-02T00:14:59;2.70;;;0.90;;
72479;SDS011;60503;43.540;-5.510;2022-09-02T00:17:25;2.13;;;1.02;;
72479;SDS011;60503;43.540;-5.510;2022-09-02T00:23:12;1.23;;;0.90;;
72479;SDS011;60503;43.540;-5.510;2022-09-02T00:25:40;3.35;;;1.05;;
72479;SDS011;60503;43.540;-5.510;2022-09-02T00:28:08;2.38;;;0.85;;
72479;SDS011;60503;43.540;-5.510;2022-09-02T00:30:33;2.40;;;0.80;;
72479;SDS011;60503;43.540;-5.510;2022-09-02T00:32:59;4.82;;;1.05;;
72479;SDS011;60503;43.540;-5.510;2022-09-02T00:35:25;2.33;;;0.80;;
72479;SDS011;60503;43.540;-5.510;2022-09-02T00:37:51;3.22;;;0.88;;
72479;SDS011;60503;43.540;-5.510;2022-09-02T00:40:16;1.05;;;0.70;;
72479;SDS011;60503;43.540;-5.510;2022-09-02T00:42:42;3.38;;;1.00;;
72479;SDS011;60503;43.540;-5.510;2022-09-02T00:45:08;3.65;;;0.90;;
72479;SDS011;60503;43.540;-5.510;2022-09-02T00:47:34;3.58;;;1.05;;
72479;SDS011;60503;43.540;-5.510;2022-09-02T00:50:01;3.03;;;0.82;;
72479;SDS011;60503;43.540;-5.510;2022-09-02T00:52:31;1.52;;;0.90;;
72479;SDS011;60503;43.540;-5.510;2022-09-02T00:55:04;2.53;;;1.00;;
72479;SDS011;60503;43.540;-5.510;2022-09-02T00:57:35;4.25;;;1.10;;
72479;SDS011;60503;43.540;-5.510;2022-09-02T01:00:09;3.88;;;1.23;;
72479;SDS011;60503;43.540;-5.510;2022-09-02T01:02:38;2.45;;;1.20;;
72479;SDS011;60503;43.540;-5.510;2022-09-02T01:05:08;3.83;;;1.40;;
72479;SDS011;60503;43.540;-5.510;2022-09-02T01:07:37;3.72;;;1.73;;
72479;SDS011;60503;43.540;-5.510;2022-09-02T01:10:08;4.78;;;1.50;;
72479;SDS011;60503;43.540;-5.510;2022-09-02T01:12:35;5.75;;;1.35;;
72479;SDS011;60503;43.540;-5.510;2022-09-02T01:15:02;3.15;;;1.20;;
72479;SDS011;60503;43.540;-5.510;2022-09-02T01:17:29;4.57;;;1.40;;
72479;SDS011;60503;43.540;-5.510;2022-09-02T01:19:58;2.60;;;1.40;;
72479;SDS011;60503;43.540;-5.510;2022-09-02T01:22:30;2.28;;;1.10;;
72479;SDS011;60503;43.540;-5.510;2022-09-02T01:24:56;4.95;;;1.23;;
72479;SDS011;60503;43.540;-5.510;2022-09-02T01:27:25;3.00;;;1.40;;
72479;SDS011;60503;43.540;-5.510;2022-09-02T01:29:52;1.88;;;1.23;;
72479;SDS011;60503;43.540;-5.510;2022-09-02T01:32:19;2.60;;;1.27;;
72479;SDS011;60503;43.540;-5.510;2022-09-02T01:34:45;5.85;;;1.70;;
72479;SDS011;60503;43.540;-5.510;2022-09-02T01:37:11;3.00;;;1.10;;
72479;SDS011;60503;43.540;-5.510;2022-09-02T01:39:37;2.63;;;1.30;;
72479;SDS011;60503;43.540;-5.510;2022-09-02T01:42:03;2.78;;;1.02;;
72479;SDS011;60503;43.540;-5.510;2022-09-02T01:44:29;3.38;;;1.30;;
72479;SDS011;60503;43.540;-5.510;2022-09-02T01:46:54;2.75;;;1.42;;
72479;SDS011;60503;43.540;-5.510;2022-09-02T01:49:20;2.53;;;1.38;;
72479;SDS011;60503;43.540;-5.510;2022-09-02T01:51:47;3.47;;;1.48;;
72479;SDS011;60503;43.540;-5.510;2022-09-02T01:54:13;5.50;;;1.30;;
72479;SDS011;60503;43.540;-5.510;2022-09-02T01:56:39;2.38;;;1.33;;
72479;SDS011;60503;43.540;-5.510;2022-09-02T01:59:05;2.03;;;1.05;;
72479;SDS011;60503;43.540;-5.510;2022-09-02T02:01:32;4.63;;;1.45;;
72479;SDS011;60503;43.540;-5.510;2022-09-02T02:03:58;1.95;;;1.30;;
72479;SDS011;60503;43.540;-5.510;2022-09-02T02:06:25;3.55;;;1.42;;
72479;SDS011;60503;43.540;-5.510;2022-09-02T02:08:51;3.10;;;1.48;;
72479;SDS011;60503;43.540;-5.510;2022-09-02T02:11:18;2.85;;;1.50;;
72479;SDS011;60503;43.540;-5.510;2022-09-02T02:13:46;5.63;;;1.70;;
72479;SDS011;60503;43.540;-5.510;2022-09-02T02:16:11;3.63;;;1.60;;
72479;SDS011;60503;43.540;-5.510;2022-09-02T02:18:37;3.97;;;1.60;;
72479;SDS011;60503;43.540;-5.510;2022-09-02T02:21:03;5.07;;;1.60;;
72479;SDS011;60503;43.540;-5.510;2022-09-02T02:23:29;3.20;;;1.20;;
72479;SDS011;60503;43.540;-5.510;2022-09-02T02:25:54;2.80;;;1.38;;
72479;SDS011;60503;43.540;-5.510;2022-09-02T02:28:20;1.88;;;1.10;;
72479;SDS011;60503;43.540;-5.510;2022-09-02T02:30:45;3.55;;;1.40;;
72479;SDS011;60503;43.540;-5.510;2022-09-02T02:33:11;5.18;;;1.40;;
72479;SDS011;60503;43.540;-5.510;2022-09-02T02:35:37;2.50;;;1.40;;
72479;SDS011;60503;43.540;-5.510;2022-09-02T02:38:03;6.10;;;1.60;;
72479;SDS011;60503;43.540;-5.510;2022-09-02T02:40:29;3.25;;;1.50;;
72479;SDS011;60503;43.540;-5.510;2022-09-02T02:42:55;4.28;;;1.65;;
72479;SDS011;60503;43.540;-5.510;2022-09-02T02:45:21;3.42;;;1.35;;
72479;SDS011;60503;43.540;-5.510;2022-09-02T02:47:48;4.68;;;1.45;;
72479;SDS011;60503;43.540;-5.510;2022-09-02T02:50:16;9.43;;;1.83;;
72479;SDS011;60503;43.540;-5.510;2022-09-02T02:52:43;3.90;;;1.95;;
72479;SDS011;60503;43.540;-5.510;2022-09-02T02:55:09;8.40;;;2.00;;
72479;SDS011;60503;43.540;-5.510;2022-09-02T02:57:36;2.83;;;1.75;;
72479;SDS011;60503;43.540;-5.510;2022-09-02T03:00:07;3.70;;;1.60;;
72479;SDS011;60503;43.540;-5.510;2022-09-02T03:02:34;5.38;;;1.58;;
72479;SDS011;60503;43.540;-5.510;2022-09-02T03:05:02;2.17;;;1.80;;
72479;SDS011;60503;43.540;-5.510;2022-09-02T03:07:28;5.03;;;1.85;;
72479;SDS011;60503;43.540;-5.510;2022-09-02T03:09:54;3.72;;;1.90;;
72479;SDS011;60503;43.540;-5.510;2022-09-02T03:12:19;5.20;;;1.67;;
72479;SDS011;60503;43.540;-5.510;2022-09-02T03:14:45;2.72;;;1.75;;
72479;SDS011;60503;43.540;-5.510;2022-09-02T03:17:11;9.13;;;2.10;;
72479;SDS011;60503;43.540;-5.510;2022-09-02T03:19:36;3.22;;;2.08;;
72479;SDS011;60503;43.540;-5.510;2022-09-02T03:22:02;7.93;;;2.40;;
72479;SDS011;60503;43.540;-5.510;2022-09-02T03:24:29;4.10;;;2.00;;
72479;SDS011;60503;43.540;-5.510;2022-09-02T03:26:54;3.90;;;1.98;;
72479;SDS011;60503;43.540;-5.510;2022-09-02T03:29:20;3.95;;;1.85;;
72479;SDS011;60503;43.540;-5.510;2022-09-02T03:31:45;5.78;;;1.63;;
72479;SDS011;60503;43.540;-5.510;2022-09-02T03:34:11;5.72;;;1.88;;
72479;SDS011;60503;43.540;-5.510;2022-09-02T03:36:38;7.15;;;1.77;;
72479;SDS011;60503;43.540;-5.510;2022-09-02T03:39:06;4.80;;;1.73;;
72479;SDS011;60503;43.540;-5.510;2022-09-02T03:41:32;3.95;;;1.63;;
72479;SDS011;60503;43.540;-5.510;2022-09-02T03:43:59;3.35;;;1.88;;
72479;SDS011;60503;43.540;-5.510;2022-09-02T03:46:26;5.43;;;1.75;;
72479;SDS011;60503;43.540;-5.510;2022-09-02T03:48:51;2.03;;;1.50;;
72479;SDS011;60503;43.540;-5.510;2022-09-02T03:51:20;7.07;;;1.60;;
72479;SDS011;60503;43.540;-5.510;2022-09-02T03:53:47;4.18;;;1.50;;
72479;SDS011;60503;43.540;-5.510;2022-09-02T03:56:13;1.80;;;1.40;;
72479;SDS011;60503;43.540;-5.510;2022-09-02T03:58:43;2.13;;;1.48;;
72479;SDS011;60503;43.540;-5.510;2022-09-02T04:01:15;4.15;;;1.75;;
72479;SDS011;60503;43.540;-5.510;2022-09-02T04:03:43;3.63;;;1.70;;
72479;SDS011;60503;43.540;-5.510;2022-09-02T04:06:10;3.08;;;1.45;;
72479;SDS011;60503;43.540;-5.510;2022-09-02T04:08:37;2.67;;;1.50;;
72479;SDS011;60503;43.540;-5.510;2022-09-02T04:11:10;3.78;;;1.73;;
72479;SDS011;60503;43.540;-5.510;2022-09-02T04:13:39;3.00;;;1.60;;
72479;SDS011;60503;43.540;-5.510;2022-09-02T04:16:05;3.53;;;1.60;;
72479;SDS011;60503;43.540;-5.510;2022-09-02T04:21:01;3.65;;;1.67;;
72479;SDS011;60503;43.540;-5.510;2022-09-02T04:23:26;3.80;;;1.70;;
72479;SDS011;60503;43.540;-5.510;2022-09-02T04:25:52;4.25;;;1.60;;
72479;SDS011;60503;43.540;-5.510;2022-09-02T04:28:18;4.30;;;1.70;;
72479;SDS011;60503;43.540;-5.510;2022-09-02T04:30:44;5.15;;;1.90;;
72479;SDS011;60503;43.540;-5.510;2022-09-02T04:33:09;3.08;;;1.50;;
72479;SDS011;60503;43.540;-5.510;2022-09-02T04:35:39;4.18;;;1.50;;
72479;SDS011;60503;43.540;-5.510;2022-09-02T04:38:06;2.90;;;1.58;;
72479;SDS011;60503;43.540;-5.510;2022-09-02T04:40:31;2.25;;;1.30;;
72479;SDS011;60503;43.540;-5.510;2022-09-02T04:42:57;4.50;;;1.55;;
72479;SDS011;60503;43.540;-5.510;2022-09-02T04:45:23;2.33;;;1.50;;
72479;SDS011;60503;43.540;-5.510;2022-09-02T04:47:49;2.60;;;1.30;;
72479;SDS011;60503;43.540;-5.510;2022-09-02T04:50:14;2.80;;;1.45;;
72479;SDS011;60503;43.540;-5.510;2022-09-02T04:52:40;3.65;;;1.77;;
72479;SDS011;60503;43.540;-5.510;2022-09-02T04:55:05;4.82;;;1.30;;
72479;SDS011;60503;43.540;-5.510;2022-09-02T04:57:31;6.53;;;1.88;;
72479;SDS011;60503;43.540;-5.510;2022-09-02T04:59:57;4.38;;;1.80;;
72479;SDS011;60503;43.540;-5.510;2022-09-02T05:02:23;2.60;;;1.52;;
72479;SDS011;60503;43.540;-5.510;2022-09-02T05:04:49;3.50;;;1.60;;
72479;SDS011;60503;43.540;-5.510;2022-09-02T05:07:16;4.85;;;1.60;;
72479;SDS011;60503;43.540;-5.510;2022-09-02T05:09:41;3.67;;;1.70;;
72479;SDS011;60503;43.540;-5.510;2022-09-02T05:12:07;2.78;;;1.50;;
72479;SDS011;60503;43.540;-5.510;2022-09-02T05:14:33;2.92;;;1.42;;
72479;SDS011;60503;43.540;-5.510;2022-09-02T05:16:58;3.67;;;1.80;;
72479;SDS011;60503;43.540;-5.510;2022-09-02T05:19:25;3.40;;;1.65;;
72479;SDS011;60503;43.540;-5.510;2022-09-02T05:21:51;2.60;;;1.65;;
72479;SDS011;60503;43.540;-5.510;2022-09-02T05:24:23;2.30;;;1.40;;
72479;SDS011;60503;43.540;-5.510;2022-09-02T05:26:52;3.50;;;1.42;;
72479;SDS011;60503;43.540;-5.510;2022-09-02T05:29:18;2.28;;;1.55;;
72479;SDS011;60503;43.540;-5.510;2022-09-02T05:31:45;3.47;;;1.30;;
72479;SDS011;60503;43.540;-5.510;2022-09-02T05:34:12;4.43;;;1.60;;
72479;SDS011;60503;43.540;-5.510;2022-09-02T05:36:38;7.47;;;1.60;;
72479;SDS011;60503;43.540;-5.510;2022-09-02T05:39:04;3.30;;;1.75;;
72479;SDS011;60503;43.540;-5.510;2022-09-02T05:41:30;3.80;;;1.80;;
72479;SDS011;60503;43.540;-5.510;2022-09-02T05:43:56;4.97;;;1.42;;
72479;SDS011;60503;43.540;-5.510;2022-09-02T05:46:25;4.28;;;1.63;;
72479;SDS011;60503;43.540;-5.510;2022-09-02T05:48:51;6.88;;;1.85;;
72479;SDS011;60503;43.540;-5.510;2022-09-02T05:51:31;4.78;;;1.70;;
72479;SDS011;60503;43.540;-5.510;2022-09-02T05:54:05;5.80;;;1.80;;
72479;SDS011;60503;43.540;-5.510;2022-09-02T05:59:52;4.63;;;1.60;;
72479;SDS011;60503;43.540;-5.510;2022-09-02T06:02:21;6.00;;;2.00;;
72479;SDS011;60503;43.540;-5.510;2022-09-02T06:04:49;4.68;;;1.52;;
72479;SDS011;60503;43.540;-5.510;2022-09-02T06:07:18;2.42;;;1.40;;
72479;SDS011;60503;43.540;-5.510;2022-09-02T06:09:45;2.33;;;1.20;;
72479;SDS011;60503;43.540;-5.510;2022-09-02T06:12:11;4.88;;;1.58;;
72479;SDS011;60503;43.540;-5.510;2022-09-02T06:14:37;4.10;;;1.50;;
72479;SDS011;60503;43.540;-5.510;2022-09-02T06:17:04;4.28;;;1.42;;
72479;SDS011;60503;43.540;-5.510;2022-09-02T06:19:29;5.22;;;1.30;;
72479;SDS011;60503;43.540;-5.510;2022-09-02T06:21:57;2.55;;;1.33;;
72479;SDS011;60503;43.540;-5.510;2022-09-02T06:24:23;1.92;;;1.40;;
72479;SDS011;60503;43.540;-5.510;2022-09-02T06:26:50;1.75;;;1.58;;
72479;SDS011;60503;43.540;-5.510;2022-09-02T06:32:39;2.83;;;1.63;;
72479;SDS011;60503;43.540;-5.510;2022-09-02T06:35:04;3.17;;;1.33;;
72479;SDS011;60503;43.540;-5.510;2022-09-02T06:37:34;3.45;;;1.50;;
72479;SDS011;60503;43.540;-5.510;2022-09-02T06:39:59;2.78;;;1.67;;
72479;SDS011;60503;43.540;-5.510;2022-09-02T06:42:25;3.35;;;1.73;;
72479;SDS011;60503;43.540;-5.510;2022-09-02T06:44:50;7.20;;;2.30;;
72479;SDS011;60503;43.540;-5.510;2022-09-02T06:47:16;3.20;;;2.40;;
72479;SDS011;60503;43.540;-5.510;2022-09-02T06:49:41;4.30;;;1.95;;
72479;SDS011;60503;43.540;-5.510;2022-09-02T06:52:07;3.13;;;1.55;;
72479;SDS011;60503;43.540;-5.510;2022-09-02T06:54:33;3.00;;;1.55;;
72479;SDS011;60503;43.540;-5.510;2022-09-02T06:56:58;2.70;;;1.80;;
72479;SDS011;60503;43.540;-5.510;2022-09-02T06:59:24;2.80;;;1.58;;
72479;SDS011;60503;43.540;-5.510;2022-09-02T07:01:50;3.38;;;1.67;;
72479;SDS011;60503;43.540;-5.510;2022-09-02T07:04:16;6.07;;;1.65;;
72479;SDS011;60503;43.540;-5.510;2022-09-02T07:07:02;2.58;;;1.67;;
72479;SDS011;60503;43.540;-5.510;2022-09-02T07:09:28;4.65;;;1.70;;
72479;SDS011;60503;43.540;-5.510;2022-09-02T07:11:58;2.88;;;1.55;;
72479;SDS011;60503;43.540;-5.510;2022-09-02T07:14:25;2.22;;;1.70;;
72479;SDS011;60503;43.540;-5.510;2022-09-02T07:16:52;1.88;;;1.50;;
72479;SDS011;60503;43.540;-5.510;2022-09-02T07:19:19;1.55;;;1.42;;
72479;SDS011;60503;43.540;-5.510;2022-09-02T07:21:46;2.80;;;1.60;;
72479;SDS011;60503;43.540;-5.510;2022-09-02T07:24:13;1.90;;;1.60;;
72479;SDS011;60503;43.540;-5.510;2022-09-02T07:26:39;3.88;;;2.00;;
72479;SDS011;60503;43.540;-5.510;2022-09-02T07:29:06;3.35;;;1.70;;
72479;SDS011;60503;43.540;-5.510;2022-09-02T07:31:33;3.42;;;2.00;;
72479;SDS011;60503;43.540;-5.510;2022-09-02T07:34:00;4.30;;;1.80;;
72479;SDS011;60503;43.540;-5.510;2022-09-02T07:36:26;5.80;;;2.08;;
72479;SDS011;60503;43.540;-5.510;2022-09-02T07:38:52;1.95;;;1.70;;
72479;SDS011;60503;43.540;-5.510;2022-09-02T07:41:18;2.80;;;1.73;;
72479;SDS011;60503;43.540;-5.510;2022-09-02T07:43:45;3.30;;;1.90;;
72479;SDS011;60503;43.540;-5.510;2022-09-02T07:46:11;4.00;;;1.90;;
72479;SDS011;60503;43.540;-5.510;2022-09-02T07:48:37;2.67;;;2.00;;
72479;SDS011;60503;43.540;-5.510;2022-09-02T07:51:03;3.10;;;2.10;;
72479;SDS011;60503;43.540;-5.510;2022-09-02T07:53:30;4.07;;;1.75;;
72479;SDS011;60503;43.540;-5.510;2022-09-02T07:55:57;2.90;;;1.98;;
72479;SDS011;60503;43.540;-5.510;2022-09-02T07:58:24;4.05;;;1.90;;
72479;SDS011;60503;43.540;-5.510;2022-09-02T08:00:51;4.47;;;1.92;;
72479;SDS011;60503;43.540;-5.510;2022-09-02T08:03:18;3.08;;;2.20;;
72479;SDS011;60503;43.540;-5.510;2022-09-02T08:05:44;5.22;;;1.75;;
72479;SDS011;60503;43.540;-5.510;2022-09-02T08:08:11;5.35;;;2.03;;
72479;SDS011;60503;43.540;-5.510;2022-09-02T08:10:37;3.60;;;1.80;;
72479;SDS011;60503;43.540;-5.510;2022-09-02T08:13:03;4.38;;;2.10;;
72479;SDS011;60503;43.540;-5.510;2022-09-02T08:15:31;4.85;;;1.95;;
72479;SDS011;60503;43.540;-5.510;2022-09-02T08:17:57;3.50;;;2.25;;
72479;SDS011;60503;43.540;-5.510;2022-09-02T08:20:23;5.07;;;2.38;;
72479;SDS011;60503;43.540;-5.510;2022-09-02T08:22:49;3.83;;;1.90;;
72479;SDS011;60503;43.540;-5.510;2022-09-02T08:25:15;2.28;;;1.50;;
72479;SDS011;60503;43.540;-5.510;2022-09-02T08:27:44;2.97;;;1.63;;
72479;SDS011;60503;43.540;-5.510;2022-09-02T08:30:10;1.75;;;1.20;;
72479;SDS011;60503;43.540;-5.510;2022-09-02T08:32:36;4.43;;;1.70;;
72479;SDS011;60503;43.540;-5.510;2022-09-02T08:35:03;3.47;;;1.30;;
72479;SDS011;60503;43.540;-5.510;2022-09-02T08:37:29;1.85;;;1.33;;
72479;SDS011;60503;43.540;-5.510;2022-09-02T08:39:56;7.75;;;1.85;;
72479;SDS011;60503;43.540;-5.510;2022-09-02T08:42:35;7.07;;;1.88;;
72479;SDS011;60503;43.540;-5.510;2022-09-02T08:45:07;2.63;;;1.65;;
72479;SDS011;60503;43.540;-5.510;2022-09-02T08:47:36;1.70;;;1.40;;
72479;SDS011;60503;43.540;-5.510;2022-09-02T08:50:12;2.25;;;1.40;;
72479;SDS011;60503;43.540;-5.510;2022-09-02T08:55:38;3.15;;;1.48;;
72479;SDS011;60503;43.540;-5.510;2022-09-02T08:58:18;2.63;;;1.70;;
72479;SDS011;60503;43.540;-5.510;2022-09-02T09:00:53;6.93;;;1.58;;
72479;SDS011;60503;43.540;-5.510;2022-09-02T09:03:40;6.00;;;1.73;;
72479;SDS011;60503;43.540;-5.510;2022-09-02T09:06:18;4.72;;;1.95;;
72479;SDS011;60503;43.540;-5.510;2022-09-02T09:08:59;4.35;;;1.63;;
72479;SDS011;60503;43.540;-5.510;2022-09-02T09:11:35;3.47;;;1.80;;
72479;SDS011;60503;43.540;-5.510;2022-09-02T09:17:02;2.90;;;1.70;;
72479;SDS011;60503;43.540;-5.510;2022-09-02T09:19:48;4.65;;;1.60;;
72479;SDS011;60503;43.540;-5.510;2022-09-02T09:22:20;2.72;;;1.73;;
72479;SDS011;60503;43.540;-5.510;2022-09-02T09:24:49;4.45;;;1.80;;
72479;SDS011;60503;43.540;-5.510;2022-09-02T09:27:18;4.68;;;1.80;;
72479;SDS011;60503;43.540;-5.510;2022-09-02T09:29:45;3.92;;;1.40;;
72479;SDS011;60503;43.540;-5.510;2022-09-02T09:32:31;3.88;;;2.15;;
72479;SDS011;60503;43.540;-5.510;2022-09-02T09:35:00;4.43;;;1.90;;
72479;SDS011;60503;43.540;-5.510;2022-09-02T09:37:35;4.78;;;2.47;;
72479;SDS011;60503;43.540;-5.510;2022-09-02T09:40:38;3.88;;;2.10;;
72479;SDS011;60503;43.540;-5.510;2022-09-02T09:51:22;10.10;;;2.08;;
72479;SDS011;60503;43.540;-5.510;2022-09-02T09:53:33;6.15;;;1.80;;
72479;SDS011;60503;43.540;-5.510;2022-09-02T09:56:45;7.10;;;1.88;;
72479;SDS011;60503;43.540;-5.510;2022-09-02T09:58:49;5.55;;;1.88;;
72479;SDS011;60503;43.540;-5.510;2022-09-02T10:04:05;6.85;;;1.60;;
72479;SDS011;60503;43.540;-5.510;2022-09-02T10:09:28;5.25;;;2.15;;
72479;SDS011;60503;43.540;-5.510;2022-09-02T10:11:57;3.10;;;1.40;;
72479;SDS011;60503;43.540;-5.510;2022-09-02T10:14:32;5.05;;;1.65;;
72479;SDS011;60503;43.540;-5.510;2022-09-02T10:17:13;4.75;;;1.58;;
72479;SDS011;60503;43.540;-5.510;2022-09-02T10:19:46;3.30;;;1.73;;
72479;SDS011;60503;43.540;-5.510;2022-09-02T10:22:36;3.88;;;1.52;;
72479;SDS011;60503;43.540;-5.510;2022-09-02T10:30:28;2.92;;;1.77;;
72479;SDS011;60503;43.540;-5.510;2022-09-02T10:35:47;4.03;;;1.67;;
72479;SDS011;60503;43.540;-5.510;2022-09-02T10:46:16;4.03;;;1.50;;
72479;SDS011;60503;43.540;-5.510;2022-09-02T10:51:53;5.57;;;1.85;;
72479;SDS011;60503;43.540;-5.510;2022-09-02T10:54:38;4.68;;;1.73;;
72479;SDS011;60503;43.540;-5.510;2022-09-02T11:05:10;7.68;;;1.80;;
72479;SDS011;60503;43.540;-5.510;2022-09-02T11:07:50;7.05;;;1.95;;
72479;SDS011;60503;43.540;-5.510;2022-09-02T11:10:52;5.20;;;1.98;;
72479;SDS011;60503;43.540;-5.510;2022-09-02T11:13:55;6.05;;;0.93;;
72479;SDS011;60503;43.540;-5.510;2022-09-02T11:16:21;3.05;;;1.30;;
72479;SDS011;60503;43.540;-5.510;2022-09-02T11:28:50;3.88;;;1.58;;
72479;SDS011;60503;43.540;-5.510;2022-09-02T11:31:04;6.78;;;1.83;;
72479;SDS011;60503;43.540;-5.510;2022-09-02T11:33:35;7.28;;;1.83;;
72479;SDS011;60503;43.540;-5.510;2022-09-02T11:36:07;4.65;;;1.52;;
72479;SDS011;60503;43.540;-5.510;2022-09-02T11:38:35;5.88;;;1.73;;
72479;SDS011;60503;43.540;-5.510;2022-09-02T11:41:23;4.60;;;1.63;;
72479;SDS011;60503;43.540;-5.510;2022-09-02T11:44:01;3.22;;;1.60;;
72479;SDS011;60503;43.540;-5.510;2022-09-02T11:49:45;7.13;;;1.98;;
72479;SDS011;60503;43.540;-5.510;2022-09-02T11:55:35;6.93;;;2.25;;
72479;SDS011;60503;43.540;-5.510;2022-09-02T11:58:03;5.50;;;1.92;;
72479;SDS011;60503;43.540;-5.510;2022-09-02T12:00:33;9.88;;;2.53;;
72479;SDS011;60503;43.540;-5.510;2022-09-02T12:03:22;6.35;;;1.92;;
72479;SDS011;60503;43.540;-5.510;2022-09-02T12:05:49;9.52;;;2.08;;
72479;SDS011;60503;43.540;-5.510;2022-09-02T12:11:05;5.60;;;1.90;;
72479;SDS011;60503;43.540;-5.510;2022-09-02T12:26:14;3.83;;;1.80;;
72479;SDS011;60503;43.540;-5.510;2022-09-02T12:28:41;5.18;;;1.98;;
72479;SDS011;60503;43.540;-5.510;2022-09-02T12:31:12;7.93;;;2.20;;
72479;SDS011;60503;43.540;-5.510;2022-09-02T12:36:06;4.53;;;2.00;;
72479;SDS011;60503;43.540;-5.510;2022-09-02T12:52:08;4.68;;;1.42;;
72479;SDS011;60503;43.540;-5.510;2022-09-02T12:57:04;9.57;;;1.40;;
72479;SDS011;60503;43.540;-5.510;2022-09-02T12:59:32;2.45;;;1.20;;
72479;SDS011;60503;43.540;-5.510;2022-09-02T13:10:52;9.02;;;1.50;;
72479;SDS011;60503;43.540;-5.510;2022-09-02T13:13:45;4.28;;;1.50;;
72479;SDS011;60503;43.540;-5.510;2022-09-02T13:19:11;5.78;;;1.73;;
72479;SDS011;60503;43.540;-5.510;2022-09-02T13:22:20;7.18;;;1.67;;
72479;SDS011;60503;43.540;-5.510;2022-09-02T13:24:59;4.13;;;1.25;;
72479;SDS011;60503;43.540;-5.510;2022-09-02T13:30:54;3.75;;;1.17;;
72479;SDS011;60503;43.540;-5.510;2022-09-02T13:33:28;3.38;;;1.25;;
72479;SDS011;60503;43.540;-5.510;2022-09-02T13:35:54;15.95;;;1.30;;
72479;SDS011;60503;43.540;-5.510;2022-09-02T13:38:24;3.27;;;1.23;;
72479;SDS011;60503;43.540;-5.510;2022-09-02T13:40:51;4.03;;;1.27;;
72479;SDS011;60503;43.540;-5.510;2022-09-02T13:43:18;4.47;;;1.20;;
72479;SDS011;60503;43.540;-5.510;2022-09-02T13:45:49;3.53;;;1.00;;
72479;SDS011;60503;43.540;-5.510;2022-09-02T13:48:22;7.33;;;1.77;;
72479;SDS011;60503;43.540;-5.510;2022-09-02T13:50:51;4.93;;;1.70;;
72479;SDS011;60503;43.540;-5.510;2022-09-02T13:53:29;3.00;;;1.60;;
72479;SDS011;60503;43.540;-5.510;2022-09-02T13:55:58;4.03;;;1.60;;
72479;SDS011;60503;43.540;-5.510;2022-09-02T14:00:53;5.03;;;2.03;;
72479;SDS011;60503;43.540;-5.510;2022-09-02T14:03:20;5.15;;;1.80;;
72479;SDS011;60503;43.540;-5.510;2022-09-02T14:05:47;6.30;;;1.92;;
72479;SDS011;60503;43.540;-5.510;2022-09-02T14:08:17;2.72;;;1.80;;
72479;SDS011;60503;43.540;-5.510;2022-09-02T14:10:45;4.47;;;2.63;;
72479;SDS011;60503;43.540;-5.510;2022-09-02T14:13:13;4.15;;;2.40;;
72479;SDS011;60503;43.540;-5.510;2022-09-02T14:15:40;4.53;;;2.40;;
72479;SDS011;60503;43.540;-5.510;2022-09-02T14:18:10;2.67;;;1.75;;
72479;SDS011;60503;43.540;-5.510;2022-09-02T14:23:34;4.35;;;2.72;;
72479;SDS011;60503;43.540;-5.510;2022-09-02T14:26:03;7.53;;;2.97;;
72479;SDS011;60503;43.540;-5.510;2022-09-02T14:28:32;7.53;;;2.88;;
72479;SDS011;60503;43.540;-5.510;2022-09-02T14:31:03;4.30;;;2.92;;
72479;SDS011;60503;43.540;-5.510;2022-09-02T14:36:06;6.32;;;3.47;;
72479;SDS011;60503;43.540;-5.510;2022-09-02T14:38:55;7.22;;;3.85;;
72479;SDS011;60503;43.540;-5.510;2022-09-02T14:41:33;6.32;;;3.55;;
72479;SDS011;60503;43.540;-5.510;2022-09-02T14:46:57;5.82;;;3.13;;
72479;SDS011;60503;43.540;-5.510;2022-09-02T14:49:28;4.55;;;2.63;;
72479;SDS011;60503;43.540;-5.510;2022-09-02T14:52:17;8.07;;;2.55;;
72479;SDS011;60503;43.540;-5.510;2022-09-02T14:54:45;4.85;;;2.50;;
72479;SDS011;60503;43.540;-5.510;2022-09-02T14:59:48;4.82;;;2.15;;
72479;SDS011;60503;43.540;-5.510;2022-09-02T15:02:21;5.38;;;2.40;;
72479;SDS011;60503;43.540;-5.510;2022-09-02T15:04:48;5.80;;;2.58;;
72479;SDS011;60503;43.540;-5.510;2022-09-02T15:07:16;5.43;;;2.28;;
72479;SDS011;60503;43.540;-5.510;2022-09-02T15:09:42;5.05;;;1.92;;
72479;SDS011;60503;43.540;-5.510;2022-09-02T15:12:13;5.20;;;2.40;;
72479;SDS011;60503;43.540;-5.510;2022-09-02T15:14:39;6.97;;;2.42;;
72479;SDS011;60503;43.540;-5.510;2022-09-02T15:17:08;5.90;;;2.17;;
72479;SDS011;60503;43.540;-5.510;2022-09-02T15:19:34;8.07;;;2.47;;
72479;SDS011;60503;43.540;-5.510;2022-09-02T15:22:00;4.25;;;2.40;;
72479;SDS011;60503;43.540;-5.510;2022-09-02T15:24:26;7.80;;;2.20;;
72479;SDS011;60503;43.540;-5.510;2022-09-02T15:26:51;9.52;;;2.65;;
72479;SDS011;60503;43.540;-5.510;2022-09-02T15:29:17;3.67;;;2.10;;
72479;SDS011;60503;43.540;-5.510;2022-09-02T15:31:43;6.13;;;2.08;;
72479;SDS011;60503;43.540;-5.510;2022-09-02T15:34:09;4.97;;;2.20;;
72479;SDS011;60503;43.540;-5.510;2022-09-02T15:36:35;4.53;;;2.33;;
72479;SDS011;60503;43.540;-5.510;2022-09-02T15:39:01;6.30;;;2.05;;
72479;SDS011;60503;43.540;-5.510;2022-09-02T15:41:26;9.20;;;2.58;;
72479;SDS011;60503;43.540;-5.510;2022-09-02T15:43:55;4.40;;;1.98;;
72479;SDS011;60503;43.540;-5.510;2022-09-02T15:46:24;6.35;;;2.30;;
72479;SDS011;60503;43.540;-5.510;2022-09-02T15:48:51;8.18;;;2.88;;
72479;SDS011;60503;43.540;-5.510;2022-09-02T15:51:18;5.63;;;2.40;;
72479;SDS011;60503;43.540;-5.510;2022-09-02T15:56:24;5.65;;;2.63;;
72479;SDS011;60503;43.540;-5.510;2022-09-02T15:58:59;6.45;;;2.90;;
72479;SDS011;60503;43.540;-5.510;2022-09-02T16:01:32;12.27;;;3.00;;
72479;SDS011;60503;43.540;-5.510;2022-09-02T16:03:59;6.90;;;2.55;;
72479;SDS011;60503;43.540;-5.510;2022-09-02T16:06:26;9.30;;;3.13;;
72479;SDS011;60503;43.540;-5.510;2022-09-02T16:08:53;7.35;;;2.47;;
72479;SDS011;60503;43.540;-5.510;2022-09-02T16:11:22;8.35;;;2.85;;
72479;SDS011;60503;43.540;-5.510;2022-09-02T16:13:48;8.63;;;2.90;;
72479;SDS011;60503;43.540;-5.510;2022-09-02T16:19:36;8.07;;;3.70;;
72479;SDS011;60503;43.540;-5.510;2022-09-02T16:22:02;10.63;;;3.75;;
72479;SDS011;60503;43.540;-5.510;2022-09-02T16:24:28;9.63;;;3.45;;
72479;SDS011;60503;43.540;-5.510;2022-09-02T16:30:15;6.90;;;3.33;;
72479;SDS011;60503;43.540;-5.510;2022-09-02T16:32:42;8.80;;;4.07;;
72479;SDS011;60503;43.540;-5.510;2022-09-02T16:35:07;8.38;;;4.22;;
72479;SDS011;60503;43.540;-5.510;2022-09-02T16:37:33;6.10;;;3.70;;
72479;SDS011;60503;43.540;-5.510;2022-09-02T16:39:59;9.20;;;4.07;;
72479;SDS011;60503;43.540;-5.510;2022-09-02T16:42:25;13.38;;;3.60;;
72479;SDS011;60503;43.540;-5.510;2022-09-02T16:44:50;9.02;;;3.47;;
72479;SDS011;60503;43.540;-5.510;2022-09-02T16:47:16;10.68;;;3.95;;
72479;SDS011;60503;43.540;-5.510;2022-09-02T16:49:42;10.13;;;3.40;;
72479;SDS011;60503;43.540;-5.510;2022-09-02T16:52:07;7.85;;;3.70;;
72479;SDS011;60503;43.540;-5.510;2022-09-02T16:54:33;7.97;;;3.72;;
72479;SDS011;60503;43.540;-5.510;2022-09-02T16:56:59;7.70;;;3.60;;
72479;SDS011;60503;43.540;-5.510;2022-09-02T16:59:25;12.80;;;3.97;;
72479;SDS011;60503;43.540;-5.510;2022-09-02T17:01:51;11.60;;;4.22;;
72479;SDS011;60503;43.540;-5.510;2022-09-02T17:04:17;9.15;;;3.88;;
72479;SDS011;60503;43.540;-5.510;2022-09-02T17:06:42;11.77;;;4.00;;
72479;SDS011;60503;43.540;-5.510;2022-09-02T17:09:08;10.05;;;3.90;;